createdAt,value
2023-08-30T00:00:11.978Z,11.16
2023-08-30T00:02:38.296Z,11.32
2023-08-30T00:05:04.654Z,10.96
2023-08-30T00:07:30.945Z,10.54
2023-08-30T00:09:57.204Z,10.72
2023-08-30T00:12:23.481Z,11.05
2023-08-30T00:14:49.736Z,11.00
2023-08-30T00:17:15.992Z,10.73
2023-08-30T00:19:42.249Z,10.87
2023-08-30T00:24:58.912Z,11.26
2023-08-30T00:27:25.182Z,11.50
2023-08-30T00:29:51.465Z,11.42
2023-08-30T00:32:17.746Z,11.23
2023-08-30T00:34:44.016Z,11.78
2023-08-30T00:37:10.275Z,12.06
2023-08-30T00:39:36.545Z,11.75
2023-08-30T00:42:02.831Z,12.13
2023-08-30T00:44:29.107Z,11.64
2023-08-30T00:46:55.383Z,11.90
2023-08-30T00:49:21.644Z,12.20
2023-08-30T00:51:47.932Z,12.07
2023-08-30T00:54:14.212Z,12.25
2023-08-30T00:56:40.505Z,12.59
2023-08-30T00:59:06.770Z,12.24
2023-08-30T01:01:33.064Z,12.44
2023-08-30T01:03:59.358Z,12.42
2023-08-30T01:06:25.679Z,12.28
2023-08-30T01:08:52.028Z,12.56
2023-08-30T01:11:18.353Z,12.21
2023-08-30T01:13:44.664Z,11.84
2023-08-30T01:16:10.947Z,11.65
2023-08-30T01:18:37.289Z,11.75
2023-08-30T01:21:03.584Z,11.89
2023-08-30T01:23:29.897Z,12.21
2023-08-30T01:25:56.170Z,12.07
2023-08-30T01:28:22.478Z,12.05
2023-08-30T01:30:48.906Z,11.90
2023-08-30T01:33:15.261Z,12.13
2023-08-30T01:35:41.554Z,11.97
2023-08-30T01:38:08.013Z,11.80
2023-08-30T01:40:34.710Z,11.76
2023-08-30T01:43:00.968Z,11.83
2023-08-30T01:45:27.232Z,12.24
2023-08-30T01:47:53.568Z,12.69
2023-08-30T01:50:19.880Z,12.90
2023-08-30T01:52:46.179Z,12.98
2023-08-30T01:55:12.467Z,13.13
2023-08-30T01:57:38.736Z,12.79
2023-08-30T02:00:05.030Z,12.49
2023-08-30T02:02:31.491Z,12.51
2023-08-30T02:04:57.790Z,12.28
2023-08-30T02:07:24.156Z,11.89
2023-08-30T02:09:50.429Z,11.87
2023-08-30T02:12:16.767Z,12.38
2023-08-30T02:14:43.044Z,12.34
2023-08-30T02:17:09.331Z,12.72
2023-08-30T02:19:35.627Z,12.57
2023-08-30T02:22:01.886Z,12.43
2023-08-30T02:24:28.147Z,12.35
2023-08-30T02:26:54.414Z,12.01
2023-08-30T02:29:20.719Z,12.15
2023-08-30T02:31:47.035Z,12.29
2023-08-30T02:34:13.330Z,12.55
2023-08-30T02:36:39.598Z,12.47
2023-08-30T02:39:05.870Z,12.46
2023-08-30T02:41:32.140Z,12.32
2023-08-30T02:43:58.419Z,12.33
2023-08-30T02:46:24.702Z,12.46
2023-08-30T02:48:50.982Z,12.00
2023-08-30T02:51:17.246Z,11.73
2023-08-30T02:53:43.506Z,11.65
2023-08-30T02:56:09.782Z,11.90
2023-08-30T02:58:36.052Z,12.14
2023-08-30T03:01:02.357Z,11.80
2023-08-30T03:03:28.663Z,11.59
2023-08-30T03:05:54.954Z,11.52
2023-08-30T03:08:21.222Z,11.55
2023-08-30T03:10:47.504Z,11.30
2023-08-30T03:13:13.790Z,11.75
2023-08-30T03:15:40.111Z,11.43
2023-08-30T03:18:06.410Z,11.33
2023-08-30T03:20:32.689Z,11.17
2023-08-30T03:22:58.953Z,11.23
2023-08-30T03:25:25.203Z,11.19
2023-08-30T03:27:51.479Z,11.05
2023-08-30T03:30:17.752Z,11.15
2023-08-30T03:32:44.060Z,10.86
2023-08-30T03:35:10.355Z,10.88
2023-08-30T03:37:36.625Z,11.11
2023-08-30T03:40:02.886Z,10.57
2023-08-30T03:42:29.169Z,11.01
2023-08-30T03:44:55.491Z,11.31
2023-08-30T03:47:21.751Z,11.57
2023-08-30T03:49:48.046Z,11.56
2023-08-30T03:52:14.312Z,11.06
2023-08-30T03:54:40.573Z,10.83
2023-08-30T03:57:06.862Z,10.44
2023-08-30T03:59:33.142Z,10.38
2023-08-30T04:01:59.392Z,10.18
2023-08-30T04:04:25.662Z,10.11
2023-08-30T04:06:51.920Z,10.52
2023-08-30T04:09:18.198Z,10.49
2023-08-30T04:11:44.478Z,10.65
2023-08-30T04:14:30.781Z,10.46
2023-08-30T04:17:17.097Z,10.46
2023-08-30T04:20:05.345Z,10.53
2023-08-30T04:22:51.833Z,10.78
2023-08-30T04:25:18.095Z,11.06
2023-08-30T04:27:44.379Z,11.28
2023-08-30T04:30:10.650Z,11.45
2023-08-30T04:32:36.973Z,11.41
2023-08-30T04:35:03.257Z,11.19
2023-08-30T04:37:29.533Z,11.61
2023-08-30T04:39:55.838Z,12.20
2023-08-30T04:42:22.144Z,12.46
2023-08-30T04:44:48.405Z,12.60
2023-08-30T04:47:14.665Z,12.49
2023-08-30T04:49:40.964Z,12.38
2023-08-30T04:52:07.236Z,12.51
2023-08-30T04:54:33.497Z,12.25
2023-08-30T04:56:59.806Z,12.32
2023-08-30T04:59:26.061Z,12.51
2023-08-30T05:01:52.319Z,12.70
2023-08-30T05:04:18.580Z,12.83
2023-08-30T05:06:44.978Z,12.96
2023-08-30T05:09:11.257Z,12.68
2023-08-30T05:11:37.519Z,12.97
2023-08-30T05:14:03.796Z,13.05
2023-08-30T05:16:30.276Z,13.14
2023-08-30T05:18:56.695Z,13.21
2023-08-30T05:21:22.952Z,13.12
2023-08-30T05:23:49.258Z,13.12
2023-08-30T05:26:15.598Z,12.93
2023-08-30T05:28:41.862Z,12.31
2023-08-30T05:31:08.239Z,12.26
2023-08-30T05:33:34.583Z,12.87
2023-08-30T05:36:00.836Z,12.65
2023-08-30T05:38:27.102Z,12.77
2023-08-30T05:40:53.407Z,13.20
2023-08-30T05:43:19.678Z,13.02
2023-08-30T05:45:45.979Z,13.14
2023-08-30T05:48:12.336Z,13.31
2023-08-30T05:50:38.653Z,13.67
2023-08-30T05:53:04.934Z,13.32
2023-08-30T05:55:31.204Z,13.20
2023-08-30T05:57:57.484Z,12.66
2023-08-30T06:00:23.831Z,12.97
2023-08-30T06:02:50.187Z,12.64
2023-08-30T06:05:16.457Z,12.92
2023-08-30T06:07:42.736Z,12.58
2023-08-30T06:10:09.022Z,12.97
2023-08-30T06:12:35.289Z,13.23
2023-08-30T06:15:01.558Z,13.19
2023-08-30T06:17:27.885Z,13.12
2023-08-30T06:19:54.215Z,13.38
2023-08-30T06:22:20.502Z,13.23
2023-08-30T06:24:46.794Z,13.25
2023-08-30T06:27:13.073Z,13.17
2023-08-30T06:29:39.350Z,13.19
2023-08-30T06:32:05.655Z,13.11
2023-08-30T06:34:31.982Z,13.07
2023-08-30T06:36:58.247Z,13.16
2023-08-30T06:39:24.564Z,13.32
2023-08-30T06:41:50.904Z,13.47
2023-08-30T06:44:17.171Z,13.08
2023-08-30T06:46:43.439Z,13.21
2023-08-30T06:49:09.738Z,13.22
2023-08-30T06:51:36.034Z,13.41
2023-08-30T06:54:02.399Z,13.12
2023-08-30T06:56:28.684Z,13.41
2023-08-30T06:58:54.954Z,13.50
2023-08-30T07:01:21.236Z,13.32
2023-08-30T07:03:47.536Z,13.57
2023-08-30T07:06:13.864Z,13.35
2023-08-30T07:08:40.140Z,13.45
2023-08-30T07:11:10.149Z,13.36
2023-08-30T07:13:40.857Z,13.53
2023-08-30T07:16:07.153Z,13.44
2023-08-30T07:18:33.468Z,13.80
2023-08-30T07:20:59.796Z,13.89
2023-08-30T07:23:26.071Z,14.25
2023-08-30T07:25:52.340Z,14.49
2023-08-30T07:28:18.714Z,14.43
2023-08-30T07:30:45.028Z,13.66
2023-08-30T07:33:11.359Z,13.92
2023-08-30T07:35:37.683Z,14.18
2023-08-30T07:38:03.981Z,14.16
2023-08-30T07:40:30.392Z,13.45
2023-08-30T07:43:04.786Z,14.30
2023-08-30T07:45:31.196Z,13.91
2023-08-30T07:47:57.496Z,14.10
2023-08-30T07:50:23.843Z,13.82
2023-08-30T07:52:50.248Z,13.98
2023-08-30T07:55:16.557Z,13.97
2023-08-30T07:57:42.838Z,14.26
2023-08-30T08:00:09.108Z,13.99
2023-08-30T08:02:35.388Z,14.41
2023-08-30T08:05:01.669Z,13.94
2023-08-30T08:07:29.262Z,14.43
2023-08-30T08:09:55.717Z,14.31
2023-08-30T08:12:23.414Z,14.60
2023-08-30T08:14:49.673Z,14.24
2023-08-30T08:17:15.944Z,14.85
2023-08-30T08:19:42.251Z,14.80
2023-08-30T08:22:08.536Z,14.80
2023-08-30T08:24:34.890Z,14.40
2023-08-30T08:27:01.167Z,15.24
2023-08-30T08:29:27.773Z,15.02
2023-08-30T08:31:54.099Z,14.69
2023-08-30T08:34:20.388Z,14.75
2023-08-30T08:36:46.668Z,14.82
2023-08-30T08:39:12.949Z,14.84
2023-08-30T08:41:39.218Z,14.88
2023-08-30T08:44:05.505Z,14.75
2023-08-30T08:46:31.781Z,14.95
2023-08-30T08:48:58.126Z,14.52
2023-08-30T08:51:24.383Z,14.78
2023-08-30T08:53:50.648Z,14.45
2023-08-30T08:56:16.928Z,14.27
2023-08-30T08:58:43.194Z,14.54
2023-08-30T09:01:18.361Z,15.19
2023-08-30T09:03:51.660Z,15.32
2023-08-30T09:06:17.959Z,16.01
2023-08-30T09:08:44.233Z,15.91
2023-08-30T09:11:10.514Z,15.94
2023-08-30T09:13:36.851Z,15.78
2023-08-30T09:16:03.127Z,15.68
2023-08-30T09:18:29.437Z,16.01
2023-08-30T09:20:55.716Z,15.77
2023-08-30T09:23:22.079Z,15.43
2023-08-30T09:25:48.350Z,15.86
2023-08-30T09:28:14.628Z,15.09
2023-08-30T09:30:40.905Z,15.29
2023-08-30T09:33:07.337Z,15.35
2023-08-30T09:35:33.789Z,15.55
2023-08-30T09:38:00.072Z,15.73
2023-08-30T09:40:26.337Z,15.45
2023-08-30T09:43:12.800Z,15.50
2023-08-30T09:45:39.038Z,15.75
2023-08-30T09:48:05.328Z,15.71
2023-08-30T09:50:31.669Z,15.40
2023-08-30T09:52:57.984Z,15.35
2023-08-30T09:55:24.308Z,15.78
2023-08-30T09:57:50.585Z,16.27
2023-08-30T10:00:16.865Z,16.16
2023-08-30T10:02:57.588Z,16.27
2023-08-30T10:05:29.397Z,16.40
2023-08-30T10:07:55.688Z,16.75
2023-08-30T10:10:21.968Z,16.81
2023-08-30T10:12:53.335Z,16.95
2023-08-30T10:15:26.482Z,16.91
2023-08-30T10:17:52.827Z,16.76
2023-08-30T10:20:19.099Z,16.61
2023-08-30T10:22:45.371Z,16.20
2023-08-30T10:27:57.893Z,15.97
2023-08-30T10:30:24.177Z,15.63
2023-08-30T10:32:50.527Z,15.52
2023-08-30T10:35:16.820Z,15.63
2023-08-30T10:37:43.111Z,15.64
2023-08-30T10:40:09.383Z,15.27
2023-08-30T10:42:35.761Z,16.07
2023-08-30T10:47:31.293Z,16.31
2023-08-30T10:49:57.650Z,16.35
2023-08-30T10:52:23.935Z,16.78
2023-08-30T10:54:50.237Z,16.78
2023-08-30T10:57:16.500Z,16.79
2023-08-30T10:59:42.789Z,16.70
2023-08-30T11:02:09.054Z,16.89
2023-08-30T11:04:35.326Z,17.02
2023-08-30T11:07:01.585Z,16.23
2023-08-30T11:09:27.857Z,16.56
2023-08-30T11:11:54.135Z,17.20
2023-08-30T11:14:20.486Z,16.87
2023-08-30T11:16:46.779Z,16.94
2023-08-30T11:19:13.061Z,16.45
2023-08-30T11:21:39.325Z,16.39
2023-08-30T11:24:05.605Z,16.17
2023-08-30T11:26:31.883Z,16.19
2023-08-30T11:28:58.180Z,16.60
2023-08-30T11:31:24.477Z,16.61
2023-08-30T11:33:50.768Z,16.99
2023-08-30T11:36:17.054Z,17.11
2023-08-30T11:38:43.327Z,17.35
2023-08-30T11:41:09.681Z,16.69
2023-08-30T11:43:36.138Z,17.16
2023-08-30T11:46:02.448Z,17.11
2023-08-30T11:48:29.101Z,17.58
2023-08-30T11:50:55.430Z,17.16
2023-08-30T11:53:21.697Z,17.49
2023-08-30T11:55:48.069Z,17.34
2023-08-30T11:58:14.388Z,16.99
2023-08-30T12:00:40.633Z,17.34
2023-08-30T12:03:06.921Z,18.10
2023-08-30T12:05:33.204Z,17.68
2023-08-30T12:07:59.569Z,17.33
2023-08-30T12:10:25.906Z,17.19
2023-08-30T12:12:52.241Z,16.81
2023-08-30T12:15:18.515Z,17.50
2023-08-30T12:17:44.860Z,17.70
2023-08-30T12:20:11.163Z,17.72
2023-08-30T12:22:37.422Z,18.06
2023-08-30T12:25:03.825Z,18.06
2023-08-30T12:27:30.166Z,18.19
2023-08-30T12:29:56.439Z,18.67
2023-08-30T12:32:22.714Z,18.39
2023-08-30T12:34:48.987Z,19.14
2023-08-30T12:37:15.282Z,19.40
2023-08-30T12:39:41.599Z,19.27
2023-08-30T12:42:08.706Z,19.02
2023-08-30T12:44:36.176Z,19.22
2023-08-30T12:47:02.492Z,18.77
2023-08-30T12:49:29.831Z,19.13
2023-08-30T12:51:56.099Z,19.60
2023-08-30T12:54:22.405Z,19.79
2023-08-30T12:56:48.743Z,20.03
2023-08-30T12:59:15.056Z,20.20
2023-08-30T13:01:41.725Z,19.88
2023-08-30T13:04:08.063Z,19.92
2023-08-30T13:06:34.362Z,19.44
2023-08-30T13:09:00.620Z,18.66
2023-08-30T13:11:26.925Z,18.30
2023-08-30T13:13:53.252Z,18.63
2023-08-30T13:16:19.572Z,18.53
2023-08-30T13:18:45.879Z,17.92
2023-08-30T13:21:12.152Z,18.40
2023-08-30T13:23:38.433Z,18.40
2023-08-30T13:26:04.704Z,17.99
2023-08-30T13:28:30.994Z,18.21
2023-08-30T13:30:57.312Z,18.60
2023-08-30T13:33:23.672Z,18.28
2023-08-30T13:35:49.971Z,18.53
2023-08-30T13:38:16.256Z,17.89
2023-08-30T13:40:42.516Z,17.84
2023-08-30T13:43:09.091Z,18.37
2023-08-30T13:45:35.666Z,17.86
2023-08-30T13:48:01.954Z,17.88
2023-08-30T13:50:28.252Z,18.15
2023-08-30T13:52:54.585Z,18.50
2023-08-30T13:55:20.945Z,17.99
2023-08-30T13:57:47.229Z,18.19
2023-08-30T14:00:13.574Z,17.89
2023-08-30T14:02:39.907Z,17.94
2023-08-30T14:05:06.206Z,18.16
2023-08-30T14:07:32.509Z,18.17
2023-08-30T14:09:58.792Z,17.84
2023-08-30T14:12:25.112Z,17.95
2023-08-30T14:14:51.405Z,18.67
2023-08-30T14:17:18.007Z,18.63
2023-08-30T14:19:44.519Z,18.49
2023-08-30T14:22:10.817Z,18.46
2023-08-30T14:24:42.769Z,18.07
2023-08-30T14:27:09.169Z,18.20
2023-08-30T14:29:35.463Z,17.39
2023-08-30T14:32:01.756Z,17.88
2023-08-30T14:34:28.071Z,18.18
2023-08-30T14:36:54.340Z,18.53
2023-08-30T14:39:20.611Z,18.21
2023-08-30T14:41:46.894Z,17.66
2023-08-30T14:44:13.168Z,18.05
2023-08-30T14:46:39.461Z,17.66
2023-08-30T14:49:05.784Z,18.10
2023-08-30T14:51:32.062Z,17.94
2023-08-30T14:53:58.407Z,18.15
2023-08-30T14:56:24.754Z,18.38
2023-08-30T14:58:51.127Z,18.92
2023-08-30T15:01:17.544Z,19.07
2023-08-30T15:03:43.913Z,18.96
2023-08-30T15:06:10.220Z,18.99
2023-08-30T15:08:36.538Z,19.08
2023-08-30T15:11:02.971Z,18.42
2023-08-30T15:13:29.256Z,18.34
2023-08-30T15:15:55.567Z,18.66
2023-08-30T15:18:21.887Z,18.73
2023-08-30T15:20:48.198Z,18.62
2023-08-30T15:23:14.487Z,18.87
2023-08-30T15:25:40.786Z,18.53
2023-08-30T15:28:07.055Z,18.77
2023-08-30T15:30:33.317Z,18.81
2023-08-30T15:32:59.666Z,18.42
2023-08-30T15:35:26.016Z,18.20
2023-08-30T15:37:52.297Z,17.71
2023-08-30T15:40:18.583Z,17.74
2023-08-30T15:42:44.847Z,18.25
2023-08-30T15:45:11.113Z,18.34
2023-08-30T15:47:37.458Z,18.25
2023-08-30T15:50:03.777Z,18.19
2023-08-30T15:52:31.240Z,17.91
2023-08-30T15:54:57.650Z,17.95
2023-08-30T15:57:23.928Z,18.04
2023-08-30T15:59:50.233Z,18.38
2023-08-30T16:02:16.668Z,18.46
2023-08-30T16:04:43.092Z,18.46
2023-08-30T16:07:09.395Z,18.37
2023-08-30T16:09:35.662Z,18.42
2023-08-30T16:12:01.931Z,18.15
2023-08-30T16:14:28.205Z,18.24
2023-08-30T16:16:54.565Z,18.10
2023-08-30T16:19:20.860Z,17.79
2023-08-30T16:21:47.118Z,17.94
2023-08-30T16:24:13.385Z,17.88
2023-08-30T16:26:39.657Z,18.05
2023-08-30T16:29:05.945Z,18.03
2023-08-30T16:31:32.262Z,18.18
2023-08-30T16:33:58.570Z,17.68
2023-08-30T16:36:24.945Z,17.52
2023-08-30T16:38:51.236Z,17.91
2023-08-30T16:41:17.501Z,17.54
2023-08-30T16:43:43.770Z,17.69
2023-08-30T16:46:10.050Z,17.29
2023-08-30T16:48:36.380Z,17.26
2023-08-30T16:51:02.716Z,16.96
2023-08-30T16:53:29.010Z,16.33
2023-08-30T16:55:55.356Z,16.61
2023-08-30T16:58:21.677Z,16.83
2023-08-30T17:00:47.976Z,16.24
2023-08-30T17:03:14.474Z,15.95
2023-08-30T17:05:41.058Z,15.52
2023-08-30T17:08:07.344Z,15.41
2023-08-30T17:10:35.273Z,14.89
2023-08-30T17:13:02.904Z,14.90
2023-08-30T17:15:29.198Z,14.83
2023-08-30T17:17:55.618Z,15.19
2023-08-30T17:20:21.942Z,14.91
2023-08-30T17:22:48.216Z,14.73
2023-08-30T17:25:14.531Z,14.98
2023-08-30T17:27:40.883Z,15.14
2023-08-30T17:30:07.147Z,15.29
2023-08-30T17:32:33.448Z,15.32
2023-08-30T17:34:59.757Z,15.52
2023-08-30T17:37:26.031Z,15.37
2023-08-30T17:39:52.307Z,15.15
2023-08-30T17:42:18.617Z,15.24
2023-08-30T17:44:57.408Z,14.98
2023-08-30T17:47:25.721Z,15.77
2023-08-30T17:49:52.114Z,15.71
2023-08-30T17:52:18.390Z,15.92
2023-08-30T17:54:44.667Z,15.43
2023-08-30T17:57:11.007Z,15.72
2023-08-30T17:59:37.306Z,15.33
2023-08-30T18:02:03.645Z,15.20
2023-08-30T18:04:29.986Z,14.57
2023-08-30T18:06:56.257Z,14.30
2023-08-30T18:09:22.536Z,14.60
2023-08-30T18:11:48.819Z,14.88
2023-08-30T18:14:15.139Z,14.98
2023-08-30T18:16:41.396Z,14.70
2023-08-30T18:19:07.754Z,15.37
2023-08-30T18:21:34.100Z,15.50
2023-08-30T18:24:00.430Z,15.79
2023-08-30T18:26:26.733Z,15.74
2023-08-30T18:28:53.070Z,15.60
2023-08-30T18:31:19.390Z,15.65
2023-08-30T18:33:45.658Z,15.60
2023-08-30T18:36:11.946Z,15.51
2023-08-30T18:38:38.258Z,15.22
2023-08-30T18:41:15.968Z,15.47
2023-08-30T18:43:42.919Z,15.44
2023-08-30T18:46:09.225Z,15.44
2023-08-30T18:48:35.511Z,15.04
2023-08-30T18:51:01.902Z,14.77
2023-08-30T18:53:28.206Z,15.25
2023-08-30T18:55:54.522Z,15.03
2023-08-30T18:58:21.100Z,15.03
2023-08-30T19:00:47.408Z,15.22
2023-08-30T19:03:14.075Z,15.26
2023-08-30T19:05:40.852Z,14.98
2023-08-30T19:08:07.179Z,14.84
2023-08-30T19:10:36.454Z,15.14
2023-08-30T19:13:02.771Z,15.15
2023-08-30T19:15:29.077Z,15.17
2023-08-30T19:17:55.391Z,14.92
2023-08-30T19:20:21.709Z,14.61
2023-08-30T19:22:47.997Z,14.43
2023-08-30T19:25:14.328Z,14.05
2023-08-30T19:27:40.660Z,13.48
2023-08-30T19:30:07.044Z,14.00
2023-08-30T19:32:33.367Z,14.24
2023-08-30T19:34:59.685Z,13.99
2023-08-30T19:37:26.085Z,13.53
2023-08-30T19:39:52.377Z,13.26
2023-08-30T19:42:18.672Z,13.58
2023-08-30T19:44:44.967Z,13.61
2023-08-30T19:47:11.263Z,14.17
2023-08-30T19:49:37.565Z,14.26
2023-08-30T19:52:03.856Z,13.95
2023-08-30T19:54:30.175Z,13.95
2023-08-30T19:56:56.485Z,14.40
2023-08-30T19:59:22.752Z,14.58
2023-08-30T20:01:49.083Z,14.14
2023-08-30T20:04:15.422Z,13.98
2023-08-30T20:06:41.777Z,13.51
2023-08-30T20:09:08.179Z,13.51
2023-08-30T20:11:34.820Z,13.66
2023-08-30T20:14:01.249Z,13.96
2023-08-30T20:16:27.603Z,13.88
2023-08-30T20:18:53.941Z,14.14
2023-08-30T20:21:20.281Z,14.19
2023-08-30T20:23:46.557Z,13.71
2023-08-30T20:26:12.856Z,13.95
2023-08-30T20:28:39.144Z,13.69
2023-08-30T20:31:05.445Z,13.26
2023-08-30T20:33:31.726Z,13.00
2023-08-30T20:35:58.078Z,13.24
2023-08-30T20:38:24.352Z,12.82
2023-08-30T20:40:50.633Z,12.91
2023-08-30T20:43:17.180Z,13.05
2023-08-30T20:45:43.683Z,13.29
2023-08-30T20:48:10.038Z,13.28
2023-08-30T20:50:36.369Z,13.25
2023-08-30T20:53:02.640Z,13.26
2023-08-30T20:55:39.401Z,13.16
2023-08-30T20:58:06.627Z,13.13
2023-08-30T21:00:32.927Z,13.20
2023-08-30T21:02:59.268Z,13.01
2023-08-30T21:05:25.594Z,13.08
2023-08-30T21:07:51.861Z,13.49
2023-08-30T21:10:18.141Z,14.07
2023-08-30T21:12:48.630Z,14.13
2023-08-30T21:15:18.230Z,13.93
2023-08-30T21:17:44.557Z,13.34
2023-08-30T21:20:10.844Z,12.81
2023-08-30T21:22:37.580Z,12.69
2023-08-30T21:25:03.878Z,13.20
2023-08-30T21:27:30.149Z,13.46
2023-08-30T21:29:56.422Z,13.43
2023-08-30T21:32:22.718Z,13.53
2023-08-30T21:34:48.989Z,13.49
2023-08-30T21:37:15.272Z,12.80
2023-08-30T21:39:41.525Z,12.91
2023-08-30T21:42:07.814Z,12.76
2023-08-30T21:44:34.097Z,12.99
2023-08-30T21:47:00.390Z,13.32
2023-08-30T21:49:26.683Z,13.32
2023-08-30T21:51:52.943Z,13.00
2023-08-30T21:54:19.227Z,13.95
2023-08-30T21:56:45.552Z,13.71
2023-08-30T21:59:11.827Z,13.53
2023-08-30T22:01:38.129Z,13.28
2023-08-30T22:04:04.419Z,12.89
2023-08-30T22:06:30.689Z,13.34
2023-08-30T22:08:56.988Z,13.38
2023-08-30T22:11:23.306Z,13.28
2023-08-30T22:13:49.604Z,13.87
2023-08-30T22:16:16.066Z,14.05
2023-08-30T22:18:42.371Z,14.25
2023-08-30T22:21:08.641Z,13.96
2023-08-30T22:23:34.919Z,13.91
2023-08-30T22:26:01.181Z,14.14
2023-08-30T22:28:27.516Z,13.85
2023-08-30T22:30:53.870Z,13.60
2023-08-30T22:33:20.165Z,13.01
2023-08-30T22:35:46.428Z,13.19
2023-08-30T22:38:12.686Z,12.95
2023-08-30T22:40:38.953Z,13.18
2023-08-30T22:43:05.238Z,13.46
2023-08-30T22:45:31.522Z,13.52
2023-08-30T22:47:57.899Z,13.21
2023-08-30T22:50:24.222Z,13.01
2023-08-30T22:52:50.505Z,13.02
2023-08-30T22:55:16.803Z,13.46
2023-08-30T22:57:43.083Z,13.39
2023-08-30T23:00:09.360Z,12.98
2023-08-30T23:02:35.678Z,12.73
2023-08-30T23:05:02.016Z,12.56
2023-08-30T23:07:28.324Z,12.82
2023-08-30T23:09:54.620Z,12.65
2023-08-30T23:12:20.917Z,13.02
2023-08-30T23:14:47.217Z,12.65
2023-08-30T23:17:13.497Z,13.03
2023-08-30T23:19:39.801Z,12.63
2023-08-30T23:22:06.077Z,13.09
2023-08-30T23:24:32.345Z,13.30
2023-08-30T23:26:58.622Z,13.47
2023-08-30T23:29:25.028Z,13.62
2023-08-30T23:31:51.304Z,13.92
2023-08-30T23:34:17.589Z,14.11
2023-08-30T23:36:43.856Z,14.24
2023-08-30T23:39:10.116Z,14.02
2023-08-30T23:41:36.401Z,13.74
2023-08-30T23:44:02.714Z,13.38
2023-08-30T23:46:28.975Z,13.57
2023-08-30T23:48:55.280Z,13.59
2023-08-30T23:51:21.562Z,13.45
2023-08-30T23:53:47.850Z,13.50
2023-08-30T23:56:14.129Z,13.61
2023-08-30T23:58:40.445Z,13.58
